Time;durP1;ratioP1;P1;durP2;ratioP2;P2;SDS_P1;SDS_P2;PMS_P1;PMS_P2;Temp;Humidity;BMP_temperature;BMP_pressure;BME280_temperature;BME280_humidity;BME280_pressure;Samples;Min_cycle;Max_cycle;Signal;HPM_P1;HPM_P2
2023/06/08 00:02:07;;;;;;;13.35;8.60;;;19.00;74.10;;;;;;4995588;28;20112;-67
2023/06/08 00:04:33;;;;;;;17.00;11.98;;;19.00;74.10;;;;;;4998206;28;20050;-66
2023/06/08 00:07:00;;;;;;;14.65;10.35;;;18.90;74.20;;;;;;4998995;28;20034;-66
2023/06/08 00:09:26;;;;;;;18.67;12.68;;;18.90;74.40;;;;;;4999432;28;20036;-68
2023/06/08 00:11:55;;;;;;;19.65;14.18;;;18.90;74.50;;;;;;4997953;28;20026;-66
2023/06/08 00:14:21;;;;;;;18.98;11.98;;;18.90;74.90;;;;;;4998994;28;20053;-67
2023/06/08 00:16:51;;;;;;;19.35;13.25;;;18.90;75.10;;;;;;4999088;28;20156;-66
2023/06/08 00:19:17;;;;;;;21.40;13.75;;;18.90;74.90;;;;;;4999285;28;20129;-68
2023/06/08 00:21:43;;;;;;;18.55;13.20;;;18.90;75.10;;;;;;4998982;28;20424;-66
2023/06/08 00:24:10;;;;;;;19.90;13.48;;;18.90;75.00;;;;;;4998565;28;20027;-67
2023/06/08 00:26:36;;;;;;;19.85;13.45;;;18.90;74.90;;;;;;4998531;28;20460;-67
2023/06/08 00:29:02;;;;;;;21.48;15.63;;;19.00;75.10;;;;;;4998860;28;20038;-67
2023/06/08 00:31:28;;;;;;;17.33;13.02;;;19.00;75.10;;;;;;4998539;28;20084;-67
2023/06/08 00:33:54;;;;;;;16.13;12.27;;;19.00;75.00;;;;;;4998391;28;20101;-67
2023/06/08 00:36:20;;;;;;;17.20;12.55;;;19.00;75.00;;;;;;4998681;28;20081;-66
2023/06/08 00:38:46;;;;;;;18.77;13.43;;;19.00;74.80;;;;;;4998654;28;20038;-67
2023/06/08 00:41:12;;;;;;;20.23;13.35;;;19.00;74.90;;;;;;4998363;28;20038;-66
2023/06/08 00:43:38;;;;;;;18.05;13.57;;;19.00;75.10;;;;;;4998431;28;20026;-67
2023/06/08 00:46:07;;;;;;;20.50;12.38;;;19.00;74.80;;;;;;4998253;28;20037;-67
2023/06/08 00:48:33;;;;;;;20.60;12.85;;;19.00;75.00;;;;;;4998457;28;20026;-67
2023/06/08 00:51:00;;;;;;;17.88;12.05;;;19.00;75.00;;;;;;4998712;28;20027;-67
2023/06/08 00:53:28;;;;;;;20.92;13.80;;;19.00;75.00;;;;;;4998570;28;20022;-67
2023/06/08 00:56:06;;;;;;;15.98;11.30;;;19.00;74.70;;;;;;4997436;28;20034;-67
2023/06/08 00:58:33;;;;;;;16.30;10.55;;;19.00;74.90;;;;;;4998581;28;20077;-67
2023/06/08 01:01:01;;;;;;;13.93;10.88;;;19.00;74.70;;;;;;4997940;28;20030;-67
2023/06/08 01:03:35;;;;;;;14.77;9.55;;;19.00;74.70;;;;;;4997821;28;20040;-67
2023/06/08 01:06:03;;;;;;;12.98;9.60;;;19.00;74.70;;;;;;4997796;28;20050;-67
2023/06/08 01:08:52;;;;;;;16.38;10.27;;;18.90;74.50;;;;;;4997844;28;20034;-67
2023/06/08 01:11:28;;;;;;;13.48;8.95;;;18.90;74.50;;;;;;4999868;28;20042;-67
2023/06/08 01:14:18;;;;;;;14.43;10.07;;;18.90;74.50;;;;;;4998067;28;20034;-68
2023/06/08 01:16:50;;;;;;;15.95;9.82;;;18.90;74.40;;;;;;4997950;28;20026;-67
2023/06/08 01:19:38;;;;;;;13.57;8.50;;;18.90;74.40;;;;;;4997717;28;20033;-67
2023/06/08 01:22:18;;;;;;;11.85;8.40;;;18.90;74.60;;;;;;4997583;28;20399;-67
2023/06/08 01:24:49;;;;;;;13.05;9.30;;;18.90;74.60;;;;;;4998007;28;20085;-67
2023/06/08 01:27:20;;;;;;;13.55;9.98;;;18.80;74.90;;;;;;4997553;28;20026;-67
2023/06/08 01:29:47;;;;;;;18.02;11.40;;;18.80;74.90;;;;;;4997793;28;20031;-67
2023/06/08 01:32:12;;;;;;;14.82;10.07;;;18.80;75.00;;;;;;4997764;28;20030;-67
2023/06/08 01:34:40;;;;;;;13.35;9.68;;;18.70;75.10;;;;;;4997599;28;20060;-67
2023/06/08 01:37:30;;;;;;;17.38;9.65;;;18.70;75.10;;;;;;4997367;28;20042;-67
2023/06/08 01:40:07;;;;;;;16.55;10.63;;;18.70;75.10;;;;;;4997320;28;20359;-67
2023/06/08 01:42:35;;;;;;;14.27;10.43;;;18.70;75.30;;;;;;4997190;28;20132;-67
2023/06/08 01:45:16;;;;;;;16.27;11.43;;;18.60;75.50;;;;;;4997138;28;20034;-67
2023/06/08 01:48:03;;;;;;;14.00;9.48;;;18.70;75.40;;;;;;4997489;28;20037;-68
2023/06/08 01:50:31;;;;;;;15.23;9.70;;;18.60;75.50;;;;;;4997013;28;20038;-68
2023/06/08 01:52:58;;;;;;;15.73;11.00;;;18.60;75.50;;;;;;4997036;28;20033;-68
2023/06/08 01:55:25;;;;;;;15.98;11.60;;;18.60;75.40;;;;;;4997203;28;20049;-67
2023/06/08 01:57:51;;;;;;;15.88;11.27;;;18.50;75.40;;;;;;4996900;28;20057;-67
2023/06/08 02:00:19;;;;;;;15.13;11.00;;;18.50;75.50;;;;;;4998489;28;20019;-67
2023/06/08 02:02:45;;;;;;;15.95;10.85;;;18.50;75.50;;;;;;4997229;28;20444;-67
2023/06/08 02:05:13;;;;;;;22.27;14.23;;;18.50;75.70;;;;;;4996496;28;20061;-67
2023/06/08 02:07:40;;;;;;;15.45;11.25;;;18.50;75.60;;;;;;4996714;28;20391;-68
2023/06/08 02:10:07;;;;;;;15.75;10.23;;;18.50;75.70;;;;;;4996659;28;20050;-67
2023/06/08 02:12:33;;;;;;;15.55;10.57;;;18.50;75.70;;;;;;4996703;28;20041;-67
2023/06/08 02:15:00;;;;;;;17.90;12.18;;;18.40;75.70;;;;;;4996683;28;20027;-67
2023/06/08 02:17:29;;;;;;;13.02;9.50;;;18.40;75.80;;;;;;4996551;28;20035;-67
2023/06/08 02:19:55;;;;;;;13.05;8.55;;;18.40;75.70;;;;;;4996784;28;20026;-67
2023/06/08 02:22:22;;;;;;;11.10;7.93;;;18.40;75.70;;;;;;4996765;28;20030;-67
2023/06/08 02:24:49;;;;;;;10.48;7.40;;;18.40;75.70;;;;;;4996319;28;20057;-68
2023/06/08 02:27:16;;;;;;;11.00;6.75;;;18.40;75.70;;;;;;4995516;28;20084;-67
2023/06/08 02:29:42;;;;;;;9.40;6.13;;;18.40;75.60;;;;;;4995750;28;20069;-68
2023/06/08 02:32:08;;;;;;;10.45;6.03;;;18.40;75.50;;;;;;4996320;28;20034;-67
2023/06/08 02:34:37;;;;;;;8.68;5.75;;;18.40;75.40;;;;;;4996194;28;20030;-67
2023/06/08 02:37:03;;;;;;;10.27;6.40;;;18.40;75.30;;;;;;4996504;28;20040;-67
2023/06/08 02:39:29;;;;;;;8.55;6.22;;;18.30;75.20;;;;;;4996215;28;20041;-68
2023/06/08 02:41:55;;;;;;;8.73;6.15;;;18.30;75.20;;;;;;4996130;28;20030;-68
2023/06/08 02:44:21;;;;;;;9.60;6.72;;;18.20;75.20;;;;;;4995975;28;20023;-68
2023/06/08 02:46:47;;;;;;;14.65;6.93;;;18.20;75.20;;;;;;4995451;28;20032;-68
2023/06/08 02:49:13;;;;;;;11.07;7.07;;;18.20;75.30;;;;;;4996046;28;20022;-68
2023/06/08 02:51:40;;;;;;;9.40;6.28;;;18.10;75.30;;;;;;4996281;28;20066;-68
2023/06/08 02:54:06;;;;;;;9.52;6.10;;;18.10;75.30;;;;;;4996127;28;20026;-68
2023/06/08 02:56:32;;;;;;;9.02;6.28;;;18.00;75.30;;;;;;4996453;28;20085;-68
2023/06/08 02:58:58;;;;;;;8.05;5.78;;;18.00;75.30;;;;;;4995960;28;20018;-68
2023/06/08 03:01:25;;;;;;;7.82;5.95;;;18.00;75.30;;;;;;4995897;28;20026;-68
2023/06/08 03:03:53;;;;;;;10.45;6.28;;;18.00;75.30;;;;;;4995422;28;20468;-68
2023/06/08 03:06:19;;;;;;;9.45;6.55;;;17.90;75.30;;;;;;4996386;28;20037;-68
2023/06/08 03:08:53;;;;;;;8.40;5.93;;;17.90;75.30;;;;;;4996046;28;20038;-68
2023/06/08 03:11:20;;;;;;;9.00;6.30;;;17.90;75.30;;;;;;4995781;28;20113;-68
2023/06/08 03:13:48;;;;;;;9.13;6.47;;;17.90;75.30;;;;;;4996275;28;20053;-68
2023/06/08 03:16:15;;;;;;;8.82;6.32;;;17.90;75.30;;;;;;4995660;28;20475;-68
2023/06/08 03:18:41;;;;;;;9.43;6.32;;;17.90;75.30;;;;;;4995742;28;20076;-68
2023/06/08 03:21:08;;;;;;;10.85;6.18;;;17.80;75.40;;;;;;4995088;28;20077;-68
2023/06/08 03:23:35;;;;;;;9.30;5.82;;;17.80;75.40;;;;;;4995822;28;20359;-68
2023/06/08 03:26:02;;;;;;;11.98;7.45;;;17.80;75.40;;;;;;4995625;28;20030;-68
2023/06/08 03:28:28;;;;;;;9.25;6.25;;;17.80;75.60;;;;;;4995576;28;20038;-68
2023/06/08 03:30:54;;;;;;;8.50;5.85;;;17.80;75.50;;;;;;4995527;28;20462;-68
2023/06/08 03:33:21;;;;;;;8.15;5.05;;;17.70;75.50;;;;;;4996031;28;20068;-68
2023/06/08 03:35:48;;;;;;;9.20;5.13;;;17.70;75.40;;;;;;4995576;28;20468;-68
2023/06/08 03:38:14;;;;;;;8.02;5.43;;;17.70;75.30;;;;;;4997228;28;20022;-68
2023/06/08 03:40:40;;;;;;;8.07;4.18;;;17.80;75.30;;;;;;4999542;28;20030;-68
2023/06/08 03:43:06;;;;;;;6.47;4.30;;;17.80;75.20;;;;;;4999381;28;20022;-68
2023/06/08 03:45:32;;;;;;;7.70;4.47;;;17.80;75.10;;;;;;4999631;28;20045;-68
2023/06/08 03:47:58;;;;;;;6.35;4.22;;;17.90;75.00;;;;;;4999586;28;20510;-68
2023/06/08 03:50:24;;;;;;;5.95;4.15;;;17.90;74.90;;;;;;4999614;28;20022;-68
2023/06/08 03:52:50;;;;;;;4.68;3.65;;;17.90;74.80;;;;;;4999321;28;20038;-68
2023/06/08 03:55:18;;;;;;;5.78;4.05;;;18.00;74.70;;;;;;4999181;28;20030;-68
2023/06/08 03:57:44;;;;;;;5.55;3.78;;;18.00;74.70;;;;;;4999134;28;20030;-68
2023/06/08 04:00:11;;;;;;;7.65;4.20;;;18.00;74.60;;;;;;4999442;28;20148;-68
2023/06/08 04:02:38;;;;;;;6.78;4.28;;;18.10;74.60;;;;;;4999386;28;20030;-68
2023/06/08 04:05:07;;;;;;;6.78;4.10;;;18.10;74.50;;;;;;4998652;28;20049;-68
2023/06/08 04:07:34;;;;;;;6.57;4.57;;;18.20;74.40;;;;;;4999285;28;20105;-68
2023/06/08 04:10:04;;;;;;;8.27;4.68;;;18.20;74.50;;;;;;4998937;28;20058;-68
2023/06/08 04:12:31;;;;;;;7.22;4.18;;;18.30;74.30;;;;;;4998853;28;20037;-68
2023/06/08 04:14:58;;;;;;;6.55;4.55;;;18.40;74.30;;;;;;4999062;28;20034;-68
2023/06/08 04:17:27;;;;;;;5.90;4.18;;;18.40;74.20;;;;;;4997934;28;20113;-68
2023/06/08 04:19:53;;;;;;;6.05;4.43;;;18.50;74.20;;;;;;4999040;28;20034;-68
2023/06/08 04:22:19;;;;;;;9.07;4.90;;;18.60;73.90;;;;;;4998700;28;20106;-68
2023/06/08 04:24:45;;;;;;;6.72;4.63;;;18.80;73.80;;;;;;4998616;28;20046;-68
2023/06/08 04:27:11;;;;;;;7.65;4.72;;;18.90;73.60;;;;;;4998626;28;20030;-68
2023/06/08 04:29:37;;;;;;;7.60;4.60;;;19.00;73.40;;;;;;4999116;28;20037;-68
2023/06/08 04:32:03;;;;;;;8.07;5.10;;;19.20;73.10;;;;;;4997623;28;20053;-68
2023/06/08 04:34:31;;;;;;;6.72;4.40;;;19.40;72.80;;;;;;4998957;28;20150;-68
2023/06/08 04:36:58;;;;;;;7.10;5.10;;;19.60;72.40;;;;;;4998523;28;20156;-68
2023/06/08 04:39:24;;;;;;;7.30;4.95;;;19.90;72.20;;;;;;4998416;28;20045;-68
2023/06/08 04:41:53;;;;;;;8.35;4.70;;;20.10;72.00;;;;;;4998358;28;20022;-68
2023/06/08 04:44:20;;;;;;;6.82;5.15;;;20.30;71.60;;;;;;4998154;28;20463;-68
2023/06/08 04:46:47;;;;;;;8.55;5.47;;;20.60;71.30;;;;;;4998571;28;20022;-68
2023/06/08 04:49:14;;;;;;;6.95;4.88;;;20.90;71.00;;;;;;4997470;28;20030;-68
2023/06/08 04:51:46;;;;;;;6.90;5.30;;;21.40;71.00;;;;;;4998350;28;20038;-68
2023/06/08 04:54:16;;;;;;;6.68;4.90;;;22.30;70.10;;;;;;4998399;28;20030;-69
2023/06/08 04:56:43;;;;;;;6.60;4.63;;;23.30;68.60;;;;;;4998474;28;20101;-68
2023/06/08 04:59:09;;;;;;;6.82;4.28;;;24.30;66.90;;;;;;4998074;28;20054;-68
2023/06/08 05:01:35;;;;;;;7.90;4.57;;;25.20;65.00;;;;;;4997957;28;20026;-68
2023/06/08 05:04:06;;;;;;;6.50;4.35;;;26.20;63.20;;;;;;4997654;28;20030;-69
2023/06/08 05:06:34;;;;;;;5.93;3.90;;;27.00;61.40;;;;;;4997978;28;20485;-68
2023/06/08 05:09:00;;;;;;;6.10;4.30;;;27.80;59.70;;;;;;4998658;28;20076;-69
2023/06/08 05:11:26;;;;;;;5.13;3.95;;;28.50;58.10;;;;;;4997224;28;20031;-69
2023/06/08 05:13:52;;;;;;;7.45;4.28;;;29.20;56.60;;;;;;4998193;28;20462;-69
2023/06/08 05:16:18;;;;;;;9.10;4.40;;;29.90;55.30;;;;;;4997870;28;20412;-69
2023/06/08 05:18:44;;;;;;;8.75;4.40;;;30.50;54.10;;;;;;4997827;28;20030;-67
2023/06/08 05:21:11;;;;;;;13.45;4.95;;;31.10;52.80;;;;;;4998232;28;20113;-67
2023/06/08 05:23:37;;;;;;;7.55;4.10;;;31.60;51.60;;;;;;4998030;28;20030;-70
2023/06/08 05:26:02;;;;;;;9.18;5.18;;;32.30;50.50;;;;;;4997934;28;20037;-67
2023/06/08 05:28:28;;;;;;;8.60;4.65;;;32.70;49.50;;;;;;4998113;28;20030;-67
2023/06/08 05:30:54;;;;;;;11.65;4.53;;;33.30;48.70;;;;;;4997543;28;20045;-67
2023/06/08 05:33:20;;;;;;;10.00;4.93;;;33.80;47.80;;;;;;4997454;28;20444;-67
2023/06/08 05:35:46;;;;;;;8.57;5.45;;;34.40;46.70;;;;;;4997717;28;20033;-67
2023/06/08 05:38:12;;;;;;;8.20;4.82;;;34.90;45.50;;;;;;4997427;28;20030;-67
2023/06/08 05:40:39;;;;;;;7.68;4.45;;;35.30;44.70;;;;;;4997618;28;20027;-68
2023/06/08 05:43:05;;;;;;;9.00;4.78;;;35.80;43.90;;;;;;4997720;28;20027;-67
2023/06/08 05:45:31;;;;;;;7.25;4.72;;;36.30;43.00;;;;;;4997168;28;20041;-68
2023/06/08 05:47:57;;;;;;;6.60;4.70;;;36.60;42.40;;;;;;4997696;28;20030;-68
2023/06/08 05:50:23;;;;;;;7.78;5.70;;;37.00;41.60;;;;;;4997170;28;20022;-70
2023/06/08 05:52:49;;;;;;;9.20;5.55;;;37.40;40.70;;;;;;4997186;28;20037;-70
2023/06/08 05:55:15;;;;;;;6.35;5.07;;;37.80;40.40;;;;;;4996092;28;20026;-70
2023/06/08 05:57:41;;;;;;;7.63;5.57;;;38.20;39.70;;;;;;4997523;28;20030;-68
2023/06/08 06:00:11;;;;;;;7.32;5.18;;;38.70;39.30;;;;;;4997412;28;20037;-67
2023/06/08 06:02:39;;;;;;;9.05;6.30;;;39.00;38.40;;;;;;4996744;28;20034;-67
2023/06/08 06:05:08;;;;;;;9.43;5.80;;;39.50;37.90;;;;;;4996450;28;20057;-67
2023/06/08 06:07:35;;;;;;;8.38;5.55;;;39.80;37.20;;;;;;4996778;28;20037;-67
2023/06/08 06:10:02;;;;;;;6.82;4.70;;;40.30;36.70;;;;;;4997063;28;20023;-67
2023/06/08 06:12:28;;;;;;;5.50;4.20;;;40.60;36.00;;;;;;4996684;28;20029;-67
2023/06/08 06:14:55;;;;;;;4.82;4.22;;;40.90;35.50;;;;;;4995966;28;20031;-67
2023/06/08 06:17:22;;;;;;;5.93;4.38;;;41.30;35.00;;;;;;4995640;28;20399;-67
2023/06/08 06:19:48;;;;;;;6.97;4.47;;;41.70;34.40;;;;;;4996848;28;20032;-67
2023/06/08 06:22:15;;;;;;;4.75;3.90;;;42.00;33.80;;;;;;4997067;28;20026;-67
2023/06/08 06:24:41;;;;;;;5.13;3.38;;;42.40;33.10;;;;;;4996621;28;20105;-67
2023/06/08 06:27:09;;;;;;;5.97;3.33;;;42.70;32.30;;;;;;4996779;28;20505;-67
2023/06/08 06:29:35;;;;;;;6.45;3.88;;;43.00;31.60;;;;;;4995446;28;20026;-67
2023/06/08 06:32:01;;;;;;;4.20;3.35;;;43.30;30.90;;;;;;4996400;28;20022;-67
2023/06/08 06:34:27;;;;;;;3.67;3.30;;;43.50;30.30;;;;;;4996812;28;20042;-68
2023/06/08 06:36:53;;;;;;;4.97;3.42;;;43.70;29.70;;;;;;4996278;28;20046;-68
2023/06/08 06:39:19;;;;;;;4.38;3.45;;;43.40;29.30;;;;;;4996271;28;20052;-69
2023/06/08 06:41:45;;;;;;;3.80;3.35;;;42.60;29.70;;;;;;4996218;28;20548;-68
2023/06/08 06:44:11;;;;;;;4.03;3.30;;;41.50;30.50;;;;;;4996378;28;20085;-67
2023/06/08 06:46:38;;;;;;;4.20;3.45;;;40.30;31.70;;;;;;4996123;28;20452;-68
2023/06/08 06:49:04;;;;;;;5.30;3.47;;;39.00;33.30;;;;;;4995451;28;20416;-68
2023/06/08 06:51:30;;;;;;;3.85;3.40;;;37.90;34.60;;;;;;4996539;28;20022;-68
2023/06/08 06:53:56;;;;;;;4.70;3.22;;;36.90;35.90;;;;;;4996230;28;20100;-68
2023/06/08 06:56:22;;;;;;;3.72;3.17;;;36.00;36.90;;;;;;4996548;28;20037;-68
2023/06/08 06:58:48;;;;;;;5.85;4.30;;;35.30;38.10;;;;;;4996503;28;20101;-68
2023/06/08 07:01:15;;;;;;;5.03;4.43;;;34.80;39.00;;;;;;4996449;28;20026;-68
2023/06/08 07:03:46;;;;;;;5.82;4.80;;;34.40;39.80;;;;;;4995745;28;20030;-68
2023/06/08 07:06:13;;;;;;;7.15;5.07;;;34.00;40.30;;;;;;4995672;28;20092;-67
2023/06/08 07:08:39;;;;;;;8.85;5.22;;;33.70;40.90;;;;;;4995265;28;20038;-68
2023/06/08 07:11:06;;;;;;;7.82;5.55;;;33.50;41.30;;;;;;4996061;28;20011;-68
2023/06/08 07:13:32;;;;;;;9.95;6.38;;;33.30;41.90;;;;;;4995144;28;20452;-68
2023/06/08 07:15:58;;;;;;;9.77;6.40;;;33.20;42.10;;;;;;4996319;28;20478;-68
2023/06/08 07:18:24;;;;;;;6.95;5.72;;;32.90;42.40;;;;;;4995720;28;20444;-68
2023/06/08 07:20:50;;;;;;;9.70;5.97;;;32.80;42.70;;;;;;4996001;28;20030;-68
2023/06/08 07:23:16;;;;;;;10.40;6.07;;;32.60;42.90;;;;;;4995585;28;20093;-68
2023/06/08 07:25:42;;;;;;;6.97;5.68;;;32.50;43.20;;;;;;4995689;28;20424;-68
2023/06/08 07:28:09;;;;;;;7.82;5.82;;;32.50;43.50;;;;;;4995883;28;20352;-68
2023/06/08 07:30:35;;;;;;;8.25;5.80;;;32.50;43.70;;;;;;4995652;28;20031;-68
2023/06/08 07:33:03;;;;;;;8.82;6.07;;;32.40;43.50;;;;;;4995605;28;20093;-68
2023/06/08 07:35:29;;;;;;;9.10;6.30;;;32.40;43.30;;;;;;4995775;28;20047;-68
2023/06/08 07:37:55;;;;;;;8.10;5.75;;;32.40;43.50;;;;;;4996068;28;20026;-68
2023/06/08 07:40:21;;;;;;;9.05;5.70;;;32.40;43.70;;;;;;4995963;28;20014;-68
2023/06/08 07:42:48;;;;;;;8.27;5.70;;;32.40;43.90;;;;;;4996045;28;20034;-68
2023/06/08 07:45:14;;;;;;;8.52;6.03;;;32.50;44.00;;;;;;4995362;28;20026;-68
2023/06/08 07:47:44;;;;;;;7.47;5.93;;;32.50;43.90;;;;;;4995719;28;20035;-68
2023/06/08 07:50:11;;;;;;;9.52;6.80;;;32.50;44.00;;;;;;4996202;28;20023;-70
2023/06/08 07:52:38;;;;;;;8.45;6.28;;;32.40;43.90;;;;;;4995414;28;20031;-69
2023/06/08 07:55:08;;;;;;;7.95;6.07;;;32.40;43.90;;;;;;4995317;28;20034;-68
2023/06/08 07:57:36;;;;;;;10.18;6.40;;;32.30;44.20;;;;;;4995419;28;20034;-68
2023/06/08 08:00:05;;;;;;;8.98;6.32;;;32.30;44.20;;;;;;4995318;28;20030;-68
2023/06/08 08:02:31;;;;;;;8.80;6.18;;;32.30;44.00;;;;;;4992439;28;20026;-68
2023/06/08 08:04:57;;;;;;;8.25;6.28;;;32.30;44.20;;;;;;4991532;28;20056;-68
2023/06/08 08:07:23;;;;;;;9.30;6.03;;;32.30;43.90;;;;;;4995337;28;20106;-68
2023/06/08 08:09:48;;;;;;;8.25;6.13;;;32.30;43.70;;;;;;4995712;28;20026;-68
2023/06/08 08:12:20;;;;;;;7.47;5.50;;;32.20;43.90;;;;;;4995218;28;20033;-67
2023/06/08 08:14:46;;;;;;;6.38;4.78;;;32.10;43.70;;;;;;4995031;28;20073;-69
2023/06/08 08:17:12;;;;;;;5.68;4.60;;;32.10;43.70;;;;;;4995217;28;20023;-69
2023/06/08 08:19:40;;;;;;;7.72;5.10;;;32.00;43.60;;;;;;4995728;28;20026;-67
2023/06/08 08:22:07;;;;;;;8.60;6.38;;;32.00;43.60;;;;;;4995408;28;20141;-69
2023/06/08 08:24:33;;;;;;;8.80;6.50;;;32.00;44.10;;;;;;4995791;28;20364;-68
2023/06/08 08:26:59;;;;;;;10.70;7.18;;;32.00;44.30;;;;;;4998699;28;20440;-69
2023/06/08 08:29:25;;;;;;;9.05;6.53;;;32.10;44.40;;;;;;4998870;28;20025;-68
2023/06/08 08:31:51;;;;;;;10.00;7.55;;;32.10;44.40;;;;;;4998893;28;20037;-68
2023/06/08 08:34:17;;;;;;;10.48;7.38;;;32.00;44.40;;;;;;4999037;28;20022;-69
2023/06/08 08:36:43;;;;;;;10.48;8.07;;;31.90;44.50;;;;;;4998564;28;20045;-68
2023/06/08 08:39:10;;;;;;;9.60;7.68;;;31.90;44.60;;;;;;4997604;28;20030;-69
2023/06/08 08:41:40;;;;;;;11.02;8.30;;;31.80;44.60;;;;;;4998389;28;20066;-69
2023/06/08 08:44:09;;;;;;;10.52;6.45;;;31.70;44.80;;;;;;4998205;28;20027;-68
2023/06/08 08:46:37;;;;;;;13.18;9.18;;;31.70;44.90;;;;;;4998847;28;20173;-67
2023/06/08 08:49:14;;;;;;;14.07;10.15;;;31.60;45.00;;;;;;4998248;28;20041;-68
2023/06/08 08:51:40;;;;;;;12.63;10.10;;;31.60;44.80;;;;;;4998051;28;20440;-68
2023/06/08 08:54:09;;;;;;;11.60;8.70;;;31.40;45.20;;;;;;4997539;28;20105;-69
2023/06/08 08:56:36;;;;;;;13.48;10.10;;;31.40;45.50;;;;;;4998058;28;20359;-68
2023/06/08 08:59:04;;;;;;;13.65;9.25;;;31.40;45.70;;;;;;4997717;28;20403;-68
2023/06/08 09:01:32;;;;;;;12.70;9.25;;;31.40;45.90;;;;;;4997928;28;20121;-68
2023/06/08 09:04:03;;;;;;;12.98;9.70;;;31.40;46.10;;;;;;4997824;28;20360;-69
2023/06/08 09:06:29;;;;;;;13.38;8.65;;;31.40;46.10;;;;;;4997877;28;20129;-69
2023/06/08 09:09:06;;;;;;;15.15;11.25;;;31.30;46.10;;;;;;4998486;28;20019;-69
2023/06/08 09:11:58;;;;;;;14.45;9.48;;;31.30;46.20;;;;;;4998487;28;20432;-69
2023/06/08 09:14:25;;;;;;;13.32;9.55;;;31.20;46.40;;;;;;4996365;28;20041;-69
2023/06/08 09:16:51;;;;;;;14.30;10.10;;;31.20;46.50;;;;;;4998580;28;20069;-70
2023/06/08 09:19:17;;;;;;;12.18;9.50;;;31.30;46.70;;;;;;4998212;28;20030;-70
2023/06/08 09:21:44;;;;;;;14.35;10.65;;;31.40;46.60;;;;;;4998342;28;20031;-69
2023/06/08 09:24:16;;;;;;;13.13;9.25;;;31.40;46.50;;;;;;4996696;28;20038;-70
2023/06/08 09:26:56;;;;;;;10.32;8.32;;;31.40;46.40;;;;;;4995871;28;20050;-69
2023/06/08 09:29:36;;;;;;;9.65;7.53;;;31.40;46.10;;;;;;4995856;28;20030;-71
2023/06/08 09:32:02;;;;;;;11.63;7.88;;;31.40;46.40;;;;;;4995819;28;20440;-69
2023/06/08 09:34:29;;;;;;;13.32;9.23;;;31.50;46.40;;;;;;4995777;28;20158;-69
2023/06/08 09:37:09;;;;;;;14.55;9.88;;;31.40;46.10;;;;;;4995755;28;20440;-69
2023/06/08 09:39:42;;;;;;;17.50;14.15;;;31.40;46.00;;;;;;4995707;28;20039;-70
2023/06/08 09:42:09;;;;;;;12.77;9.48;;;31.30;46.00;;;;;;4980189;28;20026;-70
2023/06/08 09:44:36;;;;;;;13.40;10.43;;;31.20;46.50;;;;;;4995735;28;20030;-70
2023/06/08 09:47:25;;;;;;;12.13;8.93;;;31.00;47.00;;;;;;4997243;28;20101;-70
2023/06/08 09:49:52;;;;;;;13.10;8.63;;;31.00;47.00;;;;;;4997225;28;20019;-70
2023/06/08 09:52:23;;;;;;;9.93;7.63;;;31.00;47.20;;;;;;4997151;28;20121;-69
2023/06/08 09:54:52;;;;;;;12.00;8.70;;;31.00;47.10;;;;;;4997298;28;20018;-70
2023/06/08 09:57:22;;;;;;;13.27;9.63;;;31.10;47.10;;;;;;4997038;28;20058;-69
2023/06/08 10:00:17;;;;;;;12.40;8.35;;;31.10;47.10;;;;;;4997513;28;20482;-69
2023/06/08 10:02:55;;;;;;;11.43;8.10;;;31.20;46.70;;;;;;4997225;28;20049;-69
2023/06/08 10:05:23;;;;;;;12.68;8.95;;;31.20;46.70;;;;;;4996679;28;20038;-69
2023/06/08 10:07:54;;;;;;;12.10;8.82;;;31.30;46.80;;;;;;4997087;28;20018;-69
2023/06/08 10:10:22;;;;;;;14.82;9.32;;;31.30;46.80;;;;;;4996741;28;20030;-69
2023/06/08 10:12:48;;;;;;;9.82;6.57;;;31.20;46.80;;;;;;4996976;28;20026;-69
2023/06/08 10:15:15;;;;;;;12.55;9.20;;;31.10;46.60;;;;;;4997122;28;20109;-71
2023/06/08 10:17:42;;;;;;;11.48;7.60;;;31.00;46.40;;;;;;4996865;28;20057;-69
2023/06/08 10:20:12;;;;;;;12.38;8.95;;;31.00;46.70;;;;;;4996648;28;20026;-69
2023/06/08 10:22:40;;;;;;;11.07;7.63;;;31.00;46.90;;;;;;4996557;28;20117;-69
2023/06/08 10:25:07;;;;;;;11.85;8.00;;;31.00;46.90;;;;;;4996849;28;20024;-70
2023/06/08 10:27:34;;;;;;;10.43;8.20;;;31.00;46.90;;;;;;4996388;28;20026;-70
2023/06/08 10:30:03;;;;;;;10.98;7.47;;;31.20;47.00;;;;;;4996413;28;20030;-69
2023/06/08 10:32:38;;;;;;;10.73;8.32;;;31.20;47.10;;;;;;4996643;28;20117;-69
2023/06/08 10:35:07;;;;;;;9.70;6.55;;;31.30;46.80;;;;;;4996569;28;20034;-69
2023/06/08 10:37:35;;;;;;;8.60;5.28;;;31.40;46.40;;;;;;4996582;28;20022;-69
2023/06/08 10:40:08;;;;;;;8.93;6.57;;;31.30;46.50;;;;;;4996248;28;20030;-69
2023/06/08 10:42:34;;;;;;;8.70;6.22;;;31.40;46.20;;;;;;4996228;28;20045;-69
2023/06/08 10:45:02;;;;;;;8.73;6.03;;;31.40;46.00;;;;;;4996118;28;20023;-69
2023/06/08 10:47:31;;;;;;;7.45;5.22;;;31.30;45.90;;;;;;4995934;28;20113;-69
2023/06/08 10:50:04;;;;;;;6.18;4.70;;;31.30;45.90;;;;;;4995163;28;20439;-69
2023/06/08 10:52:45;;;;;;;7.72;4.63;;;31.40;45.40;;;;;;4996111;28;20022;-69
2023/06/08 10:55:16;;;;;;;7.63;4.35;;;31.40;44.70;;;;;;4996540;28;20030;-69
2023/06/08 10:57:53;;;;;;;6.72;4.90;;;31.40;44.60;;;;;;4995986;28;20053;-69
2023/06/08 11:00:26;;;;;;;7.63;5.80;;;31.40;45.00;;;;;;4996748;28;20030;-70
2023/06/08 11:02:59;;;;;;;7.68;5.38;;;31.40;44.80;;;;;;4995768;28;20444;-69
2023/06/08 11:05:29;;;;;;;8.18;5.57;;;31.30;44.70;;;;;;4995359;28;20476;-69
2023/06/08 11:08:00;;;;;;;7.60;5.80;;;31.30;45.00;;;;;;4996674;28;20031;-69
2023/06/08 11:10:27;;;;;;;7.97;5.80;;;31.20;45.20;;;;;;4995771;28;20466;-69
2023/06/08 11:12:55;;;;;;;6.38;4.40;;;31.20;45.30;;;;;;4995801;28;20038;-68
2023/06/08 11:15:25;;;;;;;6.25;4.65;;;31.20;45.10;;;;;;4995711;28;20475;-68
2023/06/08 11:18:20;;;;;;;6.00;4.60;;;31.10;44.90;;;;;;4995713;28;20063;-67
2023/06/08 11:20:49;;;;;;;6.43;4.10;;;31.00;44.50;;;;;;4996194;28;20022;-69
2023/06/08 11:23:16;;;;;;;5.43;3.78;;;30.90;44.70;;;;;;4995752;28;20030;-69
2023/06/08 11:25:55;;;;;;;6.18;4.13;;;30.80;44.70;;;;;;4995672;28;20040;-68
2023/06/08 11:28:22;;;;;;;6.60;3.90;;;30.70;44.80;;;;;;4995624;28;20034;-69
2023/06/08 11:30:50;;;;;;;6.10;4.03;;;30.60;45.10;;;;;;4995647;28;20468;-69
2023/06/08 11:33:18;;;;;;;8.50;5.32;;;30.60;45.40;;;;;;4995988;28;20033;-69
2023/06/08 11:35:48;;;;;;;6.85;4.68;;;30.50;45.50;;;;;;4995814;28;20019;-69
2023/06/08 11:38:14;;;;;;;6.80;4.45;;;30.30;45.60;;;;;;4995530;28;20027;-69
2023/06/08 11:40:41;;;;;;;6.00;4.38;;;30.20;45.80;;;;;;4995537;28;20054;-69
2023/06/08 11:43:10;;;;;;;7.78;5.43;;;30.20;46.20;;;;;;4995503;28;20440;-69
2023/06/08 11:45:38;;;;;;;6.00;4.47;;;30.10;46.60;;;;;;4994408;28;20031;-69
2023/06/08 11:48:04;;;;;;;8.02;6.03;;;30.10;46.70;;;;;;4994493;28;20038;-69
2023/06/08 11:50:30;;;;;;;9.10;5.85;;;30.20;46.90;;;;;;4995450;28;20026;-69
2023/06/08 11:52:57;;;;;;;8.77;5.90;;;30.30;46.80;;;;;;4995384;28;20101;-69
2023/06/08 11:55:25;;;;;;;8.45;5.55;;;30.30;46.80;;;;;;4995299;28;20040;-69
2023/06/08 11:58:02;;;;;;;10.07;6.22;;;30.30;46.70;;;;;;4995643;28;20034;-69
2023/06/08 12:00:31;;;;;;;7.15;5.00;;;30.20;46.90;;;;;;4998617;28;20034;-69
2023/06/08 12:02:58;;;;;;;7.03;5.10;;;30.20;47.20;;;;;;4999444;28;20038;-69
2023/06/08 12:05:29;;;;;;;7.18;5.25;;;30.20;47.50;;;;;;4999083;28;20061;-69
2023/06/08 12:08:03;;;;;;;8.55;5.43;;;30.20;47.60;;;;;;4999031;28;20400;-69
2023/06/08 12:10:37;;;;;;;7.35;5.18;;;30.10;47.90;;;;;;4999299;28;20097;-69
2023/06/08 12:13:07;;;;;;;7.97;5.28;;;30.20;47.90;;;;;;4998940;28;20118;-68
2023/06/08 12:15:40;;;;;;;8.30;5.47;;;30.20;47.80;;;;;;4997449;28;20034;-69
2023/06/08 12:18:06;;;;;;;8.45;5.93;;;30.30;47.80;;;;;;4999428;28;20030;-69
2023/06/08 12:20:36;;;;;;;6.20;4.78;;;30.30;47.60;;;;;;4998847;28;20026;-69
2023/06/08 12:23:05;;;;;;;7.95;5.40;;;30.30;47.70;;;;;;4999199;28;20022;-69
2023/06/08 12:25:35;;;;;;;8.10;5.75;;;30.30;47.90;;;;;;4998579;28;20038;-69
2023/06/08 12:28:02;;;;;;;8.35;6.18;;;30.40;48.00;;;;;;4999238;28;20018;-69
2023/06/08 12:30:28;;;;;;;8.70;6.63;;;30.40;47.80;;;;;;4998702;28;20095;-68
2023/06/08 12:33:02;;;;;;;10.32;6.22;;;30.40;47.60;;;;;;4998626;28;20045;-69
2023/06/08 12:35:37;;;;;;;9.02;6.18;;;30.40;47.90;;;;;;4999065;28;20027;-69
2023/06/08 12:38:05;;;;;;;9.60;6.80;;;30.40;48.10;;;;;;4998742;28;20352;-69
2023/06/08 12:40:34;;;;;;;9.95;6.65;;;30.50;48.00;;;;;;4998485;28;20391;-69
2023/06/08 12:43:01;;;;;;;7.13;5.72;;;30.50;47.70;;;;;;4998406;28;20041;-70
2023/06/08 12:45:31;;;;;;;8.18;6.47;;;30.50;47.80;;;;;;4998274;28;20084;-69
2023/06/08 12:47:57;;;;;;;9.23;6.53;;;30.60;47.50;;;;;;4998332;28;20161;-69